Terminal Aerodrome Forecast
Issued by NWS Sioux Falls, SD

Home | Current Version | Previous Version | Graphics & Text | Print | Product List | Glossary On
Versions: 1 2 3 4 5 6 7 8 9 10 11 12 13 14 15 16 17 18 19 20 21 22 23
000
FTUS43 KFSD 202339
TAFFSD
TAF
KFSD 202339Z 2100/2124 08007KT P6SM OVC030
     FM210500 08004KT P6SM VCSH OVC010
     FM210700 VRB03KT P6SM VCSH OVC008
     FM210900 VRB03KT P6SM OVC008
     FM211800 VRB03KT P6SM BKN010
     FM212100 VRB03KT P6SM BKN025
     FM212300 15004KT P6SM SCT035=

USA.gov is the U.S. government's official web portal to all federal, state and local government web resources and services.